Time;durP1;ratioP1;P1;durP2;ratioP2;P2;SDS_P1;SDS_P2;PMS_P1;PMS_P2;Temp;Humidity;BMP_temperature;BMP_pressure;BME280_temperature;BME280_humidity;BME280_pressure;Samples;Min_cycle;Max_cycle;Signal;HPM_P1;HPM_P2
2021/06/16 00:01:35;;;;;;;4.40;3.17;;;;;;;;;;5136750;27;20442;-65
2021/06/16 00:04:03;;;;;;;8.13;4.00;;;;;;;;;;5136293;27;20445;-66
2021/06/16 00:06:30;;;;;;;8.03;3.60;;;;;;;;;;5136137;27;20438;-65
2021/06/16 00:08:57;;;;;;;8.40;5.00;;;;;;;;;;5136677;27;20475;-65
2021/06/16 00:11:24;;;;;;;5.97;3.30;;;;;;;;;;5136253;27;20479;-66
2021/06/16 00:13:52;;;;;;;7.37;3.13;;;;;;;;;;5135982;27;20523;-65
2021/06/16 00:16:19;;;;;;;9.27;3.70;;;;;;;;;;5136198;27;20530;-68
2021/06/16 00:18:48;;;;;;;6.40;3.30;;;;;;;;;;5136245;27;20533;-66
2021/06/16 00:21:15;;;;;;;6.40;3.13;;;;;;;;;;5136161;27;20525;-65
2021/06/16 00:23:43;;;;;;;5.80;2.97;;;;;;;;;;5136526;27;20474;-66
2021/06/16 00:26:10;;;;;;;5.67;3.40;;;;;;;;;;5136007;27;20946;-66
2021/06/16 00:28:38;;;;;;;8.40;3.87;;;;;;;;;;5136011;27;20562;-65
2021/06/16 00:31:05;;;;;;;5.17;3.23;;;;;;;;;;5135535;27;20438;-66
2021/06/16 00:33:33;;;;;;;6.90;3.40;;;;;;;;;;5135573;27;20942;-66
2021/06/16 00:36:01;;;;;;;12.40;4.03;;;;;;;;;;5135530;27;20474;-66
2021/06/16 00:38:29;;;;;;;5.23;3.10;;;;;;;;;;5135660;27;20446;-66
2021/06/16 00:40:57;;;;;;;4.70;3.57;;;;;;;;;;5135413;27;20477;-65
2021/06/16 00:43:24;;;;;;;7.77;4.20;;;;;;;;;;5135364;27;20449;-65
2021/06/16 00:45:51;;;;;;;3.30;3.00;;;;;;;;;;5135664;27;20516;-66
2021/06/16 00:48:18;;;;;;;6.23;3.80;;;;;;;;;;5135300;27;20529;-65
2021/06/16 00:50:46;;;;;;;8.73;3.27;;;;;;;;;;5135561;27;20438;-65
2021/06/16 00:53:15;;;;;;;5.97;3.60;;;;;;;;;;5135198;27;20474;-65
2021/06/16 00:55:42;;;;;;;8.87;4.23;;;;;;;;;;5135737;27;20529;-65
2021/06/16 00:58:10;;;;;;;11.63;4.80;;;;;;;;;;5135092;27;20441;-65
2021/06/16 01:00:41;;;;;;;10.70;4.93;;;;;;;;;;5134991;27;20473;-66
2021/06/16 01:03:12;;;;;;;4.57;4.10;;;;;;;;;;5134926;27;20426;-65
2021/06/16 01:05:41;;;;;;;4.10;3.53;;;;;;;;;;5134851;27;20426;-65
2021/06/16 01:08:09;;;;;;;7.43;4.20;;;;;;;;;;5135010;27;20529;-65
2021/06/16 01:10:42;;;;;;;8.23;4.13;;;;;;;;;;5133924;27;20433;-65
2021/06/16 01:13:10;;;;;;;6.77;3.53;;;;;;;;;;5135060;27;20423;-66
2021/06/16 01:15:41;;;;;;;4.93;3.57;;;;;;;;;;5134874;27;20484;-65
2021/06/16 01:18:09;;;;;;;6.83;4.33;;;;;;;;;;5134528;27;20938;-65
2021/06/16 01:20:38;;;;;;;8.80;4.20;;;;;;;;;;5134423;27;20474;-66
2021/06/16 01:23:14;;;;;;;8.57;4.60;;;;;;;;;;5134818;27;20438;-66
2021/06/16 01:25:47;;;;;;;5.07;3.30;;;;;;;;;;5134972;27;20422;-66
2021/06/16 01:28:15;;;;;;;9.50;4.37;;;;;;;;;;5134565;27;20482;-65
2021/06/16 01:30:43;;;;;;;9.30;4.33;;;;;;;;;;5134847;27;20437;-65
2021/06/16 01:33:12;;;;;;;5.40;4.13;;;;;;;;;;5134752;27;20516;-65
2021/06/16 01:35:40;;;;;;;4.43;3.83;;;;;;;;;;5134551;27;20438;-66
2021/06/16 01:38:08;;;;;;;10.73;3.93;;;;;;;;;;5134476;27;20477;-66
2021/06/16 01:40:35;;;;;;;6.97;3.80;;;;;;;;;;5134767;27;20484;-65
2021/06/16 01:43:04;;;;;;;11.23;4.07;;;;;;;;;;5134483;27;20437;-65
2021/06/16 01:45:34;;;;;;;7.23;3.73;;;;;;;;;;5134766;27;20762;-66
2021/06/16 01:48:01;;;;;;;7.27;4.20;;;;;;;;;;5135001;27;20438;-65
2021/06/16 01:50:30;;;;;;;5.90;3.43;;;;;;;;;;5134068;27;20445;-65
2021/06/16 01:52:59;;;;;;;7.57;3.77;;;;;;;;;;5134427;28;20922;-66
2021/06/16 01:55:26;;;;;;;7.50;4.37;;;;;;;;;;5134096;28;20903;-66
2021/06/16 01:57:55;;;;;;;7.53;4.30;;;;;;;;;;5134367;28;20839;-65
2021/06/16 02:00:22;;;;;;;6.10;4.70;;;;;;;;;;5133955;28;20990;-65
2021/06/16 02:02:51;;;;;;;8.00;4.23;;;;;;;;;;5134710;28;20438;-65
2021/06/16 02:05:19;;;;;;;8.50;4.10;;;;;;;;;;5133948;28;20435;-66
2021/06/16 02:07:48;;;;;;;10.07;4.57;;;;;;;;;;5134169;28;20434;-66
2021/06/16 02:10:16;;;;;;;7.20;4.60;;;;;;;;;;5133925;28;20435;-66
2021/06/16 02:12:45;;;;;;;7.87;4.00;;;;;;;;;;5134216;28;20520;-66
2021/06/16 02:15:15;;;;;;;12.03;4.07;;;;;;;;;;5134364;28;20472;-66
2021/06/16 02:17:44;;;;;;;7.37;4.43;;;;;;;;;;5133938;28;20456;-66
2021/06/16 02:20:14;;;;;;;7.07;4.27;;;;;;;;;;5133759;28;20496;-66
2021/06/16 02:22:41;;;;;;;6.03;3.77;;;;;;;;;;5137350;27;20444;-66
2021/06/16 02:25:09;;;;;;;9.80;4.03;;;;;;;;;;5137836;27;20492;-66
2021/06/16 02:27:36;;;;;;;9.63;4.33;;;;;;;;;;5138099;27;20534;-66
2021/06/16 02:30:06;;;;;;;11.13;3.77;;;;;;;;;;5138023;27;20446;-66
2021/06/16 02:32:33;;;;;;;16.70;5.27;;;;;;;;;;5138289;27;20437;-65
2021/06/16 02:35:01;;;;;;;6.73;4.53;;;;;;;;;;5137505;27;20475;-65
2021/06/16 02:37:29;;;;;;;11.17;4.90;;;;;;;;;;5138236;27;20522;-66
2021/06/16 02:39:59;;;;;;;11.10;4.80;;;;;;;;;;5137533;27;20572;-66
2021/06/16 02:42:26;;;;;;;6.50;4.87;;;;;;;;;;5137551;27;20434;-66
2021/06/16 02:44:54;;;;;;;6.23;5.10;;;;;;;;;;5137833;27;20865;-66
2021/06/16 02:47:21;;;;;;;6.27;4.80;;;;;;;;;;5137709;27;20918;-65
2021/06/16 02:49:51;;;;;;;6.90;4.87;;;;;;;;;;5137418;27;20524;-66
2021/06/16 02:52:19;;;;;;;7.57;5.70;;;;;;;;;;5137553;27;20545;-66
2021/06/16 02:54:57;;;;;;;6.70;4.77;;;;;;;;;;5137576;27;20433;-65
2021/06/16 02:57:25;;;;;;;9.10;5.00;;;;;;;;;;5137917;27;20513;-65
2021/06/16 02:59:53;;;;;;;12.70;4.77;;;;;;;;;;5137360;27;20473;-65
2021/06/16 03:02:22;;;;;;;8.40;5.03;;;;;;;;;;5137769;27;20517;-65
2021/06/16 03:04:49;;;;;;;9.10;4.73;;;;;;;;;;5137404;27;20429;-65
2021/06/16 03:07:17;;;;;;;8.27;4.97;;;;;;;;;;5136978;27;20930;-65
2021/06/16 03:09:45;;;;;;;9.17;5.60;;;;;;;;;;5137710;27;20921;-65
2021/06/16 03:12:14;;;;;;;7.50;4.67;;;;;;;;;;5138043;27;20440;-65
2021/06/16 03:14:42;;;;;;;10.13;5.80;;;;;;;;;;5137339;27;21006;-65
2021/06/16 03:17:11;;;;;;;10.40;5.70;;;;;;;;;;5137289;27;20443;-65
2021/06/16 03:19:39;;;;;;;12.60;5.00;;;;;;;;;;5136722;27;20477;-65
2021/06/16 03:22:06;;;;;;;8.97;5.70;;;;;;;;;;5136993;27;20627;-66
2021/06/16 03:24:35;;;;;;;9.53;5.03;;;;;;;;;;5136951;27;20470;-66
2021/06/16 03:27:03;;;;;;;9.90;4.80;;;;;;;;;;5136621;27;20465;-65
2021/06/16 03:29:31;;;;;;;5.23;4.70;;;;;;;;;;5137133;27;20453;-66
2021/06/16 03:31:59;;;;;;;7.87;4.80;;;;;;;;;;5136372;27;20450;-66
2021/06/16 03:34:26;;;;;;;16.50;5.07;;;;;;;;;;5135824;27;20523;-66
2021/06/16 03:36:55;;;;;;;8.83;4.80;;;;;;;;;;5137102;27;21011;-66
2021/06/16 03:39:22;;;;;;;7.70;4.60;;;;;;;;;;5136302;27;20525;-65
2021/06/16 03:41:50;;;;;;;8.13;4.87;;;;;;;;;;5136633;27;20479;-65
2021/06/16 03:44:17;;;;;;;12.80;4.77;;;;;;;;;;5136662;27;20517;-65
2021/06/16 03:46:46;;;;;;;8.97;4.60;;;;;;;;;;5136254;27;20438;-65
2021/06/16 03:49:15;;;;;;;6.27;3.80;;;;;;;;;;5136647;27;20481;-66
2021/06/16 03:51:43;;;;;;;9.80;4.93;;;;;;;;;;5136717;27;20528;-65
2021/06/16 03:54:12;;;;;;;12.33;5.00;;;;;;;;;;5136644;27;20434;-66
2021/06/16 03:56:39;;;;;;;10.57;4.70;;;;;;;;;;5136216;27;20919;-65
2021/06/16 03:59:07;;;;;;;10.83;5.33;;;;;;;;;;5136001;27;20437;-65
2021/06/16 04:01:34;;;;;;;6.83;3.90;;;;;;;;;;5136048;27;20560;-65
2021/06/16 04:04:05;;;;;;;9.00;4.30;;;;;;;;;;5136424;27;20507;-65
2021/06/16 04:06:33;;;;;;;9.87;5.07;;;;;;;;;;5131717;27;20442;-65
2021/06/16 04:09:00;;;;;;;8.93;5.03;;;;;;;;;;5121852;27;20454;-65
2021/06/16 04:11:27;;;;;;;7.20;4.47;;;;;;;;;;5115833;28;20527;-66
2021/06/16 04:13:57;;;;;;;11.10;4.57;;;;;;;;;;5115559;28;20472;-65
2021/06/16 04:16:25;;;;;;;6.57;4.87;;;;;;;;;;5115191;28;20919;-65
2021/06/16 04:18:52;;;;;;;7.23;5.53;;;;;;;;;;5115049;28;20439;-65
2021/06/16 04:21:21;;;;;;;8.83;5.10;;;;;;;;;;5114890;28;20481;-66
2021/06/16 04:23:49;;;;;;;8.30;4.77;;;;;;;;;;5115298;28;20480;-65
2021/06/16 04:26:16;;;;;;;10.00;4.77;;;;;;;;;;5115589;28;20438;-65
2021/06/16 04:28:43;;;;;;;8.83;5.50;;;;;;;;;;5115389;28;20482;-65
2021/06/16 04:31:11;;;;;;;7.77;4.83;;;;;;;;;;5115280;28;20780;-66
2021/06/16 04:33:38;;;;;;;9.93;4.90;;;;;;;;;;5115056;28;20605;-66
2021/06/16 04:36:06;;;;;;;6.97;4.73;;;;;;;;;;5114591;27;20471;-66
2021/06/16 04:38:35;;;;;;;6.27;4.90;;;;;;;;;;5115479;28;20491;-67
2021/06/16 04:41:02;;;;;;;8.53;4.90;;;;;;;;;;5115349;28;20470;-66
2021/06/16 04:43:30;;;;;;;7.80;4.53;;;;;;;;;;5114806;28;20957;-66
2021/06/16 04:45:57;;;;;;;14.20;4.60;;;;;;;;;;5115261;28;20443;-66
2021/06/16 04:48:25;;;;;;;9.50;5.50;;;;;;;;;;5114888;28;20450;-67
2021/06/16 04:50:52;;;;;;;6.43;4.50;;;;;;;;;;5114903;28;20435;-66
2021/06/16 04:53:19;;;;;;;10.30;5.57;;;;;;;;;;5114687;28;20439;-66
2021/06/16 04:55:48;;;;;;;5.87;5.10;;;;;;;;;;5115042;28;20499;-68
2021/06/16 04:58:15;;;;;;;11.50;5.03;;;;;;;;;;5114721;28;20441;-66
2021/06/16 05:00:43;;;;;;;6.23;5.37;;;;;;;;;;5114128;28;20982;-66
2021/06/16 05:03:10;;;;;;;5.27;4.87;;;;;;;;;;5114613;28;20526;-64
2021/06/16 05:05:37;;;;;;;11.70;6.23;;;;;;;;;;5114261;28;20942;-65
2021/06/16 05:08:05;;;;;;;5.80;5.20;;;;;;;;;;5114840;28;20537;-66
2021/06/16 05:10:32;;;;;;;7.33;5.43;;;;;;;;;;5114211;28;20530;-65
2021/06/16 05:13:01;;;;;;;7.70;4.73;;;;;;;;;;5114773;28;20502;-65
2021/06/16 05:15:28;;;;;;;12.27;5.30;;;;;;;;;;5114832;28;20431;-65
2021/06/16 05:17:55;;;;;;;8.03;4.90;;;;;;;;;;5114474;28;20480;-65
2021/06/16 05:20:25;;;;;;;11.33;6.27;;;;;;;;;;5115143;28;20839;-65
2021/06/16 05:22:53;;;;;;;10.13;4.60;;;;;;;;;;5113929;28;20435;-66
2021/06/16 05:25:20;;;;;;;9.40;5.20;;;;;;;;;;5114084;28;20446;-66
2021/06/16 05:27:47;;;;;;;12.63;5.97;;;;;;;;;;5114231;28;20468;-67
2021/06/16 05:30:19;;;;;;;5.90;5.13;;;;;;;;;;5114410;28;20544;-70
2021/06/16 05:32:46;;;;;;;10.47;5.30;;;;;;;;;;5113900;28;20911;-66
2021/06/16 05:35:13;;;;;;;11.63;4.90;;;;;;;;;;5113886;28;20529;-66
2021/06/16 05:37:44;;;;;;;7.10;5.37;;;;;;;;;;5114110;28;20450;-66
2021/06/16 05:40:12;;;;;;;10.10;4.77;;;;;;;;;;5114909;28;20424;-67
2021/06/16 05:42:44;;;;;;;10.90;5.20;;;;;;;;;;5114245;28;20902;-66
2021/06/16 05:45:12;;;;;;;9.53;5.00;;;;;;;;;;5114152;28;20459;-66
2021/06/16 05:47:41;;;;;;;7.60;5.10;;;;;;;;;;5113885;28;20842;-66
2021/06/16 05:50:09;;;;;;;7.40;5.00;;;;;;;;;;5113547;28;20984;-66
2021/06/16 05:52:36;;;;;;;10.97;5.73;;;;;;;;;;5113513;28;20438;-66
2021/06/16 05:55:03;;;;;;;6.53;4.80;;;;;;;;;;5113705;28;20601;-66
2021/06/16 05:57:31;;;;;;;8.13;4.50;;;;;;;;;;5119695;28;20938;-66
2021/06/16 05:59:58;;;;;;;9.10;4.53;;;;;;;;;;5120813;28;20792;-66
2021/06/16 06:02:25;;;;;;;9.60;4.60;;;;;;;;;;5120555;28;20485;-66
2021/06/16 06:04:53;;;;;;;4.93;4.30;;;;;;;;;;5120619;28;20870;-66
2021/06/16 06:07:22;;;;;;;8.27;5.10;;;;;;;;;;5120464;28;20441;-66
2021/06/16 06:09:50;;;;;;;9.07;5.00;;;;;;;;;;5121324;28;20486;-65
2021/06/16 06:12:17;;;;;;;7.77;4.53;;;;;;;;;;5120767;28;20489;-66
2021/06/16 06:14:44;;;;;;;5.30;4.23;;;;;;;;;;5120492;28;20518;-66
2021/06/16 06:17:11;;;;;;;12.30;5.13;;;;;;;;;;5120581;28;20549;-66
2021/06/16 06:19:40;;;;;;;6.23;4.60;;;;;;;;;;5120429;28;20445;-66
2021/06/16 06:22:09;;;;;;;10.10;5.67;;;;;;;;;;5120378;28;20516;-66
2021/06/16 06:24:37;;;;;;;9.60;5.70;;;;;;;;;;5120379;28;20813;-66
2021/06/16 06:27:04;;;;;;;7.20;4.10;;;;;;;;;;5120225;28;20557;-66
2021/06/16 06:29:33;;;;;;;6.20;4.40;;;;;;;;;;5120591;28;20413;-66
2021/06/16 06:32:00;;;;;;;5.27;4.77;;;;;;;;;;5120287;28;20446;-66
2021/06/16 06:34:27;;;;;;;5.70;5.10;;;;;;;;;;5120929;28;20495;-66
2021/06/16 06:36:54;;;;;;;9.77;5.03;;;;;;;;;;5120862;28;20733;-66
2021/06/16 06:39:23;;;;;;;11.20;5.10;;;;;;;;;;5120504;28;20548;-66
2021/06/16 06:41:50;;;;;;;6.90;4.40;;;;;;;;;;5120190;28;20572;-66
2021/06/16 06:44:17;;;;;;;10.80;5.23;;;;;;;;;;5120454;28;20443;-66
2021/06/16 06:46:45;;;;;;;9.17;4.90;;;;;;;;;;5119756;28;20441;-67
2021/06/16 06:49:12;;;;;;;7.90;4.57;;;;;;;;;;5120583;28;20576;-66
2021/06/16 06:51:40;;;;;;;14.83;6.10;;;;;;;;;;5120246;28;20806;-66
2021/06/16 06:54:08;;;;;;;35.47;18.90;;;;;;;;;;5120716;28;20441;-66
2021/06/16 06:56:37;;;;;;;10.83;5.13;;;;;;;;;;5120035;28;20484;-65
2021/06/16 06:59:04;;;;;;;9.00;4.70;;;;;;;;;;5120581;28;20436;-66
2021/06/16 07:01:31;;;;;;;9.17;4.43;;;;;;;;;;5119722;28;20471;-66
2021/06/16 07:04:01;;;;;;;8.00;4.60;;;;;;;;;;5119786;28;20467;-66
2021/06/16 07:06:28;;;;;;;8.40;4.43;;;;;;;;;;5120202;28;20470;-67
2021/06/16 07:08:56;;;;;;;10.23;4.17;;;;;;;;;;5117113;28;20473;-66
2021/06/16 07:11:24;;;;;;;7.97;4.50;;;;;;;;;;5116870;28;20530;-66
2021/06/16 07:13:52;;;;;;;8.03;4.30;;;;;;;;;;5116478;28;20520;-66
2021/06/16 07:16:19;;;;;;;6.20;4.20;;;;;;;;;;5117020;28;20444;-67
2021/06/16 07:18:48;;;;;;;13.50;4.40;;;;;;;;;;5116682;28;20522;-66
2021/06/16 07:21:15;;;;;;;7.43;4.43;;;;;;;;;;5117112;28;20537;-66
2021/06/16 07:23:42;;;;;;;9.80;5.60;;;;;;;;;;5116119;28;20535;-67
2021/06/16 07:26:10;;;;;;;8.57;6.37;;;;;;;;;;5116640;28;20487;-66
2021/06/16 07:28:37;;;;;;;10.60;6.63;;;;;;;;;;5116917;28;20536;-67
2021/06/16 07:31:06;;;;;;;8.00;6.47;;;;;;;;;;5116924;28;20528;-66
2021/06/16 07:33:33;;;;;;;8.20;5.43;;;;;;;;;;5116842;28;20536;-65
2021/06/16 07:36:00;;;;;;;10.33;3.97;;;;;;;;;;5116506;28;20440;-67
2021/06/16 07:38:28;;;;;;;9.30;4.33;;;;;;;;;;5116333;28;20495;-66
2021/06/16 07:40:55;;;;;;;5.23;4.80;;;;;;;;;;5116335;28;20505;-66
2021/06/16 07:43:22;;;;;;;4.40;4.00;;;;;;;;;;5115946;28;20517;-66
2021/06/16 07:45:49;;;;;;;5.40;3.57;;;;;;;;;;5115889;28;21016;-66
2021/06/16 07:48:18;;;;;;;5.93;3.50;;;;;;;;;;5115885;28;20444;-68
2021/06/16 07:50:45;;;;;;;5.77;4.30;;;;;;;;;;5116404;28;20440;-66
2021/06/16 07:53:12;;;;;;;11.83;8.50;;;;;;;;;;5115878;28;20883;-66
2021/06/16 07:55:40;;;;;;;8.50;4.60;;;;;;;;;;5116669;28;20532;-66
2021/06/16 07:58:08;;;;;;;5.77;4.40;;;;;;;;;;5115979;28;20492;-66
2021/06/16 08:00:35;;;;;;;4.37;3.93;;;;;;;;;;5115745;28;20930;-66
2021/06/16 08:03:02;;;;;;;11.67;4.10;;;;;;;;;;5115796;28;20480;-66
2021/06/16 08:05:31;;;;;;;7.17;3.80;;;;;;;;;;5115722;28;20452;-66
2021/06/16 08:07:58;;;;;;;12.17;4.03;;;;;;;;;;5115333;28;20954;-66
2021/06/16 08:10:27;;;;;;;8.50;3.83;;;;;;;;;;5115544;28;20440;-67
2021/06/16 08:12:54;;;;;;;9.50;3.50;;;;;;;;;;5115917;28;20880;-67
2021/06/16 08:15:21;;;;;;;6.60;3.80;;;;;;;;;;5116114;28;20446;-66
2021/06/16 08:17:50;;;;;;;6.83;3.50;;;;;;;;;;5115473;28;20449;-67
2021/06/16 08:20:17;;;;;;;6.73;3.90;;;;;;;;;;5115158;28;20499;-66
2021/06/16 08:22:46;;;;;;;6.90;3.17;;;;;;;;;;5115252;28;20560;-67
2021/06/16 08:25:14;;;;;;;7.23;3.90;;;;;;;;;;5115155;28;20446;-67
2021/06/16 08:27:41;;;;;;;9.90;3.40;;;;;;;;;;5116060;28;20476;-67
2021/06/16 08:30:09;;;;;;;5.43;3.80;;;;;;;;;;5115654;28;20462;-67
2021/06/16 08:32:37;;;;;;;4.50;4.03;;;;;;;;;;5115027;28;20961;-66
2021/06/16 08:35:05;;;;;;;7.50;3.70;;;;;;;;;;5115582;28;20469;-67
2021/06/16 08:37:32;;;;;;;5.70;4.63;;;;;;;;;;5115368;28;20442;-66
2021/06/16 08:40:01;;;;;;;15.03;4.53;;;;;;;;;;5115299;28;20453;-66
2021/06/16 08:42:29;;;;;;;6.97;4.70;;;;;;;;;;5115268;28;20489;-67
2021/06/16 08:44:58;;;;;;;11.93;5.70;;;;;;;;;;5115694;28;20492;-66
2021/06/16 08:47:30;;;;;;;11.63;4.80;;;;;;;;;;5115637;28;20511;-66
2021/06/16 08:50:00;;;;;;;12.13;5.77;;;;;;;;;;5115106;28;20476;-67
2021/06/16 08:52:27;;;;;;;7.70;4.80;;;;;;;;;;5115123;28;20450;-66
2021/06/16 08:54:56;;;;;;;13.40;4.97;;;;;;;;;;5115022;28;20474;-66
2021/06/16 08:57:24;;;;;;;10.47;6.27;;;;;;;;;;5114574;28;20454;-66
2021/06/16 08:59:51;;;;;;;107.43;13.60;;;;;;;;;;5114381;28;20449;-66
2021/06/16 09:02:19;;;;;;;12.43;5.67;;;;;;;;;;5115200;28;20480;-66
2021/06/16 09:04:47;;;;;;;23.50;5.90;;;;;;;;;;5114496;28;20489;-67
2021/06/16 09:07:16;;;;;;;21.97;5.87;;;;;;;;;;5114833;28;20467;-67
2021/06/16 09:09:43;;;;;;;7.67;4.87;;;;;;;;;;5115045;28;20454;-67
2021/06/16 09:12:12;;;;;;;5.60;5.00;;;;;;;;;;5114279;28;20443;-67
2021/06/16 09:14:52;;;;;;;8.97;5.20;;;;;;;;;;5114837;28;20444;-66
2021/06/16 09:17:21;;;;;;;12.80;6.03;;;;;;;;;;5114742;28;20435;-67
2021/06/16 09:19:51;;;;;;;5.23;4.73;;;;;;;;;;5114073;28;20970;-66
2021/06/16 09:22:19;;;;;;;7.50;4.73;;;;;;;;;;5114107;28;20498;-67
2021/06/16 09:24:47;;;;;;;8.70;4.67;;;;;;;;;;5114032;28;20525;-66
2021/06/16 09:27:35;;;;;;;6.47;5.03;;;;;;;;;;5113950;28;20468;-67
2021/06/16 09:30:04;;;;;;;7.37;4.83;;;;;;;;;;5114030;28;20720;-66
2021/06/16 09:32:44;;;;;;;10.53;5.20;;;;;;;;;;5113891;28;20494;-67
2021/06/16 09:35:19;;;;;;;5.07;4.67;;;;;;;;;;5114166;28;20432;-67
2021/06/16 09:37:46;;;;;;;8.53;4.80;;;;;;;;;;5113856;28;20459;-67
2021/06/16 09:40:14;;;;;;;7.93;4.63;;;;;;;;;;5114544;28;20795;-66
2021/06/16 09:42:42;;;;;;;8.13;6.10;;;;;;;;;;5114175;28;20528;-67
2021/06/16 09:45:11;;;;;;;9.50;5.93;;;;;;;;;;5114155;28;20447;-67
2021/06/16 09:47:39;;;;;;;7.83;5.30;;;;;;;;;;5114570;28;20439;-67
2021/06/16 09:50:08;;;;;;;6.13;4.70;;;;;;;;;;5114261;28;20946;-66
2021/06/16 09:52:37;;;;;;;9.10;5.50;;;;;;;;;;5114157;28;20954;-67
2021/06/16 09:55:06;;;;;;;7.57;5.10;;;;;;;;;;5114292;28;20458;-66
2021/06/16 09:57:34;;;;;;;8.13;5.67;;;;;;;;;;5113969;28;20508;-66
2021/06/16 10:00:02;;;;;;;6.13;5.43;;;;;;;;;;5114126;28;20527;-66
2021/06/16 10:02:31;;;;;;;11.20;5.97;;;;;;;;;;5114647;28;20498;-66
2021/06/16 10:05:00;;;;;;;9.57;5.27;;;;;;;;;;5115778;28;20525;-67
2021/06/16 10:07:28;;;;;;;8.07;5.80;;;;;;;;;;5115776;28;20460;-67
2021/06/16 10:09:57;;;;;;;6.33;5.70;;;;;;;;;;5113583;28;20534;-67
2021/06/16 10:12:25;;;;;;;6.53;5.73;;;;;;;;;;5113812;28;20443;-67
2021/06/16 10:14:53;;;;;;;12.03;5.77;;;;;;;;;;5114211;28;20791;-67
2021/06/16 10:17:20;;;;;;;8.77;7.93;;;;;;;;;;5113431;28;20530;-67
2021/06/16 10:19:50;;;;;;;6.40;5.10;;;;;;;;;;5114054;28;20839;-67
2021/06/16 10:22:18;;;;;;;7.73;5.50;;;;;;;;;;5113621;28;20483;-67
2021/06/16 10:24:45;;;;;;;8.40;5.87;;;;;;;;;;5113646;28;20487;-66
2021/06/16 10:27:16;;;;;;;10.13;6.20;;;;;;;;;;5113231;28;20562;-66
2021/06/16 10:29:45;;;;;;;7.57;5.40;;;;;;;;;;5113650;28;20443;-66
2021/06/16 10:32:13;;;;;;;10.83;9.13;;;;;;;;;;5113580;28;20807;-66
2021/06/16 10:34:58;;;;;;;8.87;7.73;;;;;;;;;;5113431;28;20500;-67
2021/06/16 10:37:26;;;;;;;10.33;6.70;;;;;;;;;;5113834;28;20448;-66
2021/06/16 10:40:12;;;;;;;8.50;5.13;;;;;;;;;;5114294;28;20535;-67
2021/06/16 10:42:54;;;;;;;10.73;7.13;;;;;;;;;;5114846;28;20472;-66
2021/06/16 10:45:22;;;;;;;7.17;5.47;;;;;;;;;;5116548;28;20435;-66
2021/06/16 10:47:59;;;;;;;6.87;5.80;;;;;;;;;;5117477;28;20857;-66
2021/06/16 10:50:41;;;;;;;7.57;6.30;;;;;;;;;;5117433;28;20467;-66
2021/06/16 10:53:09;;;;;;;6.60;6.00;;;;;;;;;;5117363;28;20450;-66
2021/06/16 10:55:52;;;;;;;12.17;6.70;;;;;;;;;;5116927;28;20955;-66
2021/06/16 10:58:19;;;;;;;7.03;5.27;;;;;;;;;;5116526;28;20554;-66
2021/06/16 11:01:08;;;;;;;9.47;5.73;;;;;;;;;;5117252;28;20485;-67
2021/06/16 11:04:02;;;;;;;8.17;6.40;;;;;;;;;;5116800;28;20494;-66
2021/06/16 11:06:40;;;;;;;7.43;6.73;;;;;;;;;;5117311;28;20438;-66
2021/06/16 11:09:09;;;;;;;6.20;5.60;;;;;;;;;;5117098;28;20529;-66
2021/06/16 11:12:00;;;;;;;7.20;5.40;;;;;;;;;;5116712;28;20500;-66
2021/06/16 11:14:47;;;;;;;7.77;6.03;;;;;;;;;;5117197;28;20756;-67
2021/06/16 11:17:29;;;;;;;6.70;5.70;;;;;;;;;;5116787;28;20435;-67
2021/06/16 11:19:57;;;;;;;7.17;6.20;;;;;;;;;;5115847;28;20466;-67
2021/06/16 11:22:38;;;;;;;6.80;6.10;;;;;;;;;;5116584;28;20439;-67
2021/06/16 11:25:26;;;;;;;9.40;6.13;;;;;;;;;;5116326;28;20518;-66
2021/06/16 11:27:57;;;;;;;8.63;6.50;;;;;;;;;;5125918;27;20486;-66
2021/06/16 11:30:32;;;;;;;6.93;6.33;;;;;;;;;;5136770;27;20529;-66
2021/06/16 11:33:17;;;;;;;7.07;6.47;;;;;;;;;;5136809;27;20437;-66
2021/06/16 11:35:45;;;;;;;6.90;6.10;;;;;;;;;;5137000;27;20449;-66
2021/06/16 11:38:13;;;;;;;9.00;6.77;;;;;;;;;;5137072;27;20421;-66
2021/06/16 11:40:41;;;;;;;9.23;7.83;;;;;;;;;;5136914;27;20508;-66
2021/06/16 11:43:09;;;;;;;8.70;6.80;;;;;;;;;;5136396;27;20678;-67
2021/06/16 11:45:36;;;;;;;6.97;6.37;;;;;;;;;;5137055;27;20438;-66
2021/06/16 11:48:03;;;;;;;10.20;6.80;;;;;;;;;;5136397;27;20412;-66
2021/06/16 11:50:31;;;;;;;8.20;6.93;;;;;;;;;;5136736;27;20438;-66
2021/06/16 11:52:59;;;;;;;6.70;6.13;;;;;;;;;;5136318;27;20421;-66
2021/06/16 11:55:44;;;;;;;8.80;6.40;;;;;;;;;;5135804;27;20819;-66
2021/06/16 11:58:22;;;;;;;7.37;6.00;;;;;;;;;;5136284;27;20426;-67
2021/06/16 12:00:50;;;;;;;7.10;6.40;;;;;;;;;;5136895;27;20410;-67
2021/06/16 12:03:18;;;;;;;7.53;6.90;;;;;;;;;;5136703;27;20530;-67
2021/06/16 12:05:45;;;;;;;8.53;6.63;;;;;;;;;;5136184;27;20538;-66
2021/06/16 12:08:12;;;;;;;7.60;6.80;;;;;;;;;;5136493;27;20885;-66
2021/06/16 12:10:39;;;;;;;9.60;8.60;;;;;;;;;;5136451;27;20452;-66
2021/06/16 12:13:09;;;;;;;11.80;7.77;;;;;;;;;;5136189;27;20417;-67
2021/06/16 12:15:37;;;;;;;7.97;7.17;;;;;;;;;;5136282;27;20465;-66
2021/06/16 12:18:06;;;;;;;8.07;6.53;;;;;;;;;;5136572;27;20405;-66
2021/06/16 12:20:34;;;;;;;7.80;6.80;;;;;;;;;;5136303;27;20416;-66
2021/06/16 12:23:02;;;;;;;10.63;7.77;;;;;;;;;;5136438;27;20539;-65
2021/06/16 12:25:30;;;;;;;9.80;6.93;;;;;;;;;;5136078;27;20421;-66
2021/06/16 12:27:58;;;;;;;7.77;7.13;;;;;;;;;;5136337;27;20509;-67
2021/06/16 12:30:28;;;;;;;6.33;5.70;;;;;;;;;;5135596;27;20499;-66
2021/06/16 12:33:11;;;;;;;8.50;6.60;;;;;;;;;;5118280;27;20556;-67
2021/06/16 12:35:43;;;;;;;8.13;6.97;;;;;;;;;;5115010;28;20451;-66
2021/06/16 12:38:10;;;;;;;7.30;6.60;;;;;;;;;;5115242;28;20918;-67
2021/06/16 12:40:38;;;;;;;9.90;7.90;;;;;;;;;;5115350;28;20441;-67
2021/06/16 12:43:06;;;;;;;6.60;6.10;;;;;;;;;;5115528;28;20475;-67
2021/06/16 12:45:35;;;;;;;9.23;7.33;;;;;;;;;;5114995;28;20435;-68
2021/06/16 12:48:04;;;;;;;10.73;7.90;;;;;;;;;;5115894;28;20444;-69
2021/06/16 12:50:33;;;;;;;7.70;7.10;;;;;;;;;;5115164;28;20447;-69
2021/06/16 12:53:01;;;;;;;11.10;6.47;;;;;;;;;;5114819;28;20451;-67
2021/06/16 12:55:28;;;;;;;7.33;6.73;;;;;;;;;;5115023;28;20781;-68
2021/06/16 12:57:56;;;;;;;7.00;6.30;;;;;;;;;;5114732;28;20444;-67
2021/06/16 13:00:26;;;;;;;8.00;6.73;;;;;;;;;;5114748;28;20536;-68
2021/06/16 13:02:55;;;;;;;7.33;6.63;;;;;;;;;;5114452;28;20431;-68
2021/06/16 13:05:26;;;;;;;7.60;6.97;;;;;;;;;;5114310;28;20441;-68
2021/06/16 13:07:54;;;;;;;6.50;6.00;;;;;;;;;;5114635;28;20434;-68
2021/06/16 13:10:31;;;;;;;7.50;6.93;;;;;;;;;;5122175;27;20454;-68
2021/06/16 13:12:59;;;;;;;7.47;6.73;;;;;;;;;;5135066;27;20526;-68
2021/06/16 13:15:28;;;;;;;7.70;7.00;;;;;;;;;;5135197;27;20467;-67
2021/06/16 13:17:57;;;;;;;7.00;6.07;;;;;;;;;;5134900;27;20536;-67
2021/06/16 13:20:30;;;;;;;9.40;6.57;;;;;;;;;;5135049;27;20440;-67
2021/06/16 13:22:58;;;;;;;7.30;6.60;;;;;;;;;;5135349;27;20459;-67
2021/06/16 13:25:27;;;;;;;7.53;6.83;;;;;;;;;;5134896;27;20492;-67
2021/06/16 13:27:57;;;;;;;6.90;6.20;;;;;;;;;;5134860;27;20522;-67
2021/06/16 13:30:34;;;;;;;9.00;6.73;;;;;;;;;;5134967;27;20812;-67
2021/06/16 13:33:04;;;;;;;8.80;6.73;;;;;;;;;;5134626;27;20516;-67
2021/06/16 13:35:31;;;;;;;8.87;6.37;;;;;;;;;;5134527;27;20440;-69
2021/06/16 13:38:00;;;;;;;7.13;6.53;;;;;;;;;;5135061;27;20858;-67
2021/06/16 13:40:27;;;;;;;7.43;6.80;;;;;;;;;;5114569;27;20452;-67
2021/06/16 13:42:56;;;;;;;9.30;7.23;;;;;;;;;;5113995;28;20865;-67
2021/06/16 13:45:25;;;;;;;6.87;6.33;;;;;;;;;;5114056;28;20440;-67
2021/06/16 13:47:53;;;;;;;8.80;6.73;;;;;;;;;;5128245;27;20494;-68
2021/06/16 13:50:22;;;;;;;6.77;6.17;;;;;;;;;;5134491;27;20458;-67
2021/06/16 13:52:50;;;;;;;6.70;6.10;;;;;;;;;;5134604;27;20468;-67
2021/06/16 13:55:17;;;;;;;7.30;6.80;;;;;;;;;;5134287;27;20983;-67
2021/06/16 13:57:44;;;;;;;11.97;6.80;;;;;;;;;;5134597;28;20466;-67
2021/06/16 14:00:13;;;;;;;7.37;6.63;;;;;;;;;;5134158;28;20530;-68
2021/06/16 14:02:42;;;;;;;7.40;6.40;;;;;;;;;;5134480;28;20476;-67
2021/06/16 14:05:10;;;;;;;8.13;7.47;;;;;;;;;;5134106;28;20991;-67
2021/06/16 14:07:38;;;;;;;7.40;6.80;;;;;;;;;;5134144;28;20453;-68
2021/06/16 14:10:06;;;;;;;10.83;7.37;;;;;;;;;;5117613;28;20435;-68
2021/06/16 14:12:35;;;;;;;8.23;6.33;;;;;;;;;;5113628;28;20449;-67
2021/06/16 14:15:04;;;;;;;9.30;6.90;;;;;;;;;;5113559;28;20449;-67
2021/06/16 14:17:31;;;;;;;7.43;5.60;;;;;;;;;;5115330;28;20499;-67
2021/06/16 14:19:59;;;;;;;7.37;6.73;;;;;;;;;;5117991;28;20877;-67
2021/06/16 14:22:26;;;;;;;7.50;6.70;;;;;;;;;;5117527;28;20949;-67
2021/06/16 14:24:55;;;;;;;8.57;6.70;;;;;;;;;;5117842;28;20493;-67
2021/06/16 14:27:22;;;;;;;7.67;6.50;;;;;;;;;;5117853;28;20898;-67
2021/06/16 14:29:49;;;;;;;6.50;6.00;;;;;;;;;;5117412;28;20937;-68
2021/06/16 14:32:17;;;;;;;7.50;6.70;;;;;;;;;;5117628;28;20548;-67
2021/06/16 14:34:45;;;;;;;8.63;7.40;;;;;;;;;;5117886;28;20551;-67
2021/06/16 14:37:13;;;;;;;7.70;6.80;;;;;;;;;;5117606;28;20445;-68
2021/06/16 14:39:40;;;;;;;6.93;6.33;;;;;;;;;;5118391;28;20489;-67
2021/06/16 14:42:08;;;;;;;9.93;7.07;;;;;;;;;;5118145;28;20440;-67
2021/06/16 14:44:36;;;;;;;8.10;7.23;;;;;;;;;;5117481;28;20568;-67
2021/06/16 14:47:03;;;;;;;7.23;6.43;;;;;;;;;;5117507;28;20536;-68
2021/06/16 14:49:30;;;;;;;7.70;7.00;;;;;;;;;;5117634;28;20447;-68
2021/06/16 14:51:58;;;;;;;7.20;6.20;;;;;;;;;;5117469;28;20518;-68